createdAt,value
2022-09-24T00:01:16.869Z,9.24
2022-09-24T00:02:48.312Z,10.22
2022-09-24T00:04:30.090Z,9.76
2022-09-24T00:06:01.894Z,10.52
2022-09-24T00:07:33.267Z,8.92
2022-09-24T00:09:04.608Z,11.30
2022-09-24T00:10:36.023Z,11.16
2022-09-24T00:12:07.538Z,10.52
2022-09-24T00:13:38.889Z,11.28
2022-09-24T00:15:10.204Z,10.57
2022-09-24T00:16:41.772Z,13.58
2022-09-24T00:18:13.278Z,34.58
2022-09-24T00:19:44.642Z,24.66
2022-09-24T00:21:16.364Z,10.70
2022-09-24T00:22:47.984Z,11.85
2022-09-24T00:24:19.411Z,12.66
2022-09-24T00:25:50.703Z,11.41
2022-09-24T00:27:21.947Z,11.90
2022-09-24T00:28:53.531Z,13.96
2022-09-24T00:30:24.858Z,11.50
2022-09-24T00:31:56.476Z,11.80
2022-09-24T00:33:28.067Z,10.72
2022-09-24T00:34:59.379Z,12.84
2022-09-24T00:36:30.746Z,16.43
2022-09-24T00:38:02.146Z,13.45
2022-09-24T00:39:33.674Z,12.82
2022-09-24T00:41:04.968Z,13.64
2022-09-24T00:42:36.331Z,13.37
2022-09-24T00:44:07.713Z,12.76
2022-09-24T00:45:39.079Z,14.65
2022-09-24T00:47:10.537Z,13.87
2022-09-24T00:48:41.963Z,14.18
2022-09-24T00:50:13.417Z,14.30
2022-09-24T00:51:44.853Z,13.73
2022-09-24T00:53:17.013Z,13.68
2022-09-24T00:54:48.522Z,17.01
2022-09-24T00:56:19.951Z,15.62
2022-09-24T00:57:51.258Z,17.15
2022-09-24T00:59:32.625Z,16.02
2022-09-24T01:01:04.011Z,15.50
2022-09-24T01:02:35.604Z,15.50
2022-09-24T01:04:08.107Z,17.75
2022-09-24T01:05:39.632Z,16.24
2022-09-24T01:07:10.946Z,15.57
2022-09-24T01:08:42.339Z,14.66
2022-09-24T01:10:13.992Z,13.72
2022-09-24T01:11:45.448Z,15.00
2022-09-24T01:13:16.803Z,17.22
2022-09-24T01:14:48.140Z,14.68
2022-09-24T01:16:19.428Z,15.71
2022-09-24T01:17:50.805Z,14.38
2022-09-24T01:19:22.155Z,15.69
2022-09-24T01:20:53.444Z,15.08
2022-09-24T01:22:24.813Z,14.47
2022-09-24T01:23:56.477Z,16.22
2022-09-24T01:25:27.866Z,16.03
2022-09-24T01:26:59.227Z,14.00
2022-09-24T01:28:30.708Z,16.81
2022-09-24T01:30:02.128Z,14.21
2022-09-24T01:31:33.741Z,14.94
2022-09-24T01:33:05.306Z,14.98
2022-09-24T01:34:36.612Z,15.29
2022-09-24T01:36:07.939Z,14.17
2022-09-24T01:37:39.383Z,15.39
2022-09-24T01:39:10.817Z,16.56
2022-09-24T01:40:42.293Z,14.66
2022-09-24T01:42:13.684Z,16.62
2022-09-24T01:43:45.055Z,15.59
2022-09-24T01:45:16.491Z,18.34
2022-09-24T01:46:48.083Z,14.76
2022-09-24T01:48:19.624Z,16.10
2022-09-24T01:49:51.159Z,16.49
2022-09-24T01:51:22.509Z,19.22
2022-09-24T01:52:53.841Z,15.95
2022-09-24T01:54:35.151Z,18.06
2022-09-24T01:56:06.700Z,16.27
2022-09-24T01:57:38.312Z,18.07
2022-09-24T01:59:09.674Z,18.65
2022-09-24T02:00:41.123Z,16.33
2022-09-24T02:02:12.452Z,18.95
2022-09-24T02:03:43.821Z,17.08
2022-09-24T02:05:15.378Z,17.57
2022-09-24T02:06:46.848Z,15.44
2022-09-24T02:08:18.394Z,16.69
2022-09-24T02:09:49.698Z,16.63
2022-09-24T02:11:20.976Z,16.58
2022-09-24T02:12:52.232Z,15.73
2022-09-24T02:14:23.624Z,16.35
2022-09-24T02:15:55.009Z,17.49
2022-09-24T02:17:26.453Z,18.12
2022-09-24T02:18:57.850Z,16.03
2022-09-24T02:20:29.238Z,16.01
2022-09-24T02:22:05.988Z,15.87
2022-09-24T02:23:37.754Z,17.96
2022-09-24T02:25:08.989Z,15.42
2022-09-24T02:26:40.262Z,15.40
2022-09-24T02:28:11.486Z,16.18
2022-09-24T02:29:42.790Z,17.52
2022-09-24T02:31:14.280Z,16.97
2022-09-24T02:32:45.873Z,16.33
2022-09-24T02:34:17.271Z,18.64
2022-09-24T02:35:48.551Z,17.42
2022-09-24T02:37:20.033Z,16.84
2022-09-24T02:38:51.790Z,16.14
2022-09-24T02:40:23.189Z,15.42
2022-09-24T02:41:54.747Z,16.59
2022-09-24T02:43:26.295Z,15.76
2022-09-24T02:44:57.752Z,15.78
2022-09-24T02:46:29.159Z,16.62
2022-09-24T02:48:00.505Z,14.71
2022-09-24T02:49:41.916Z,16.37
2022-09-24T02:51:13.221Z,16.17
2022-09-24T02:52:44.674Z,16.30
2022-09-24T02:54:16.207Z,16.59
2022-09-24T02:55:48.037Z,17.07
2022-09-24T02:57:19.934Z,15.73
2022-09-24T02:58:51.265Z,17.70
2022-09-24T03:00:22.613Z,16.76
2022-09-24T03:01:54.122Z,17.02
2022-09-24T03:03:25.658Z,16.34
2022-09-24T03:04:57.116Z,19.27
2022-09-24T03:06:28.542Z,18.11
2022-09-24T03:07:59.957Z,17.26
2022-09-24T03:09:31.412Z,17.76
2022-09-24T03:11:02.893Z,15.85
2022-09-24T03:12:34.754Z,16.49
2022-09-24T03:14:06.174Z,16.10
2022-09-24T03:15:37.684Z,18.93
2022-09-24T03:17:19.058Z,18.92
2022-09-24T03:18:50.340Z,18.47
2022-09-24T03:20:21.899Z,19.01
2022-09-24T03:21:53.151Z,18.90
2022-09-24T03:23:24.453Z,15.04
2022-09-24T03:24:55.844Z,17.06
2022-09-24T03:26:27.530Z,16.62
2022-09-24T03:27:58.834Z,16.60
2022-09-24T03:29:30.124Z,18.37
2022-09-24T03:31:01.638Z,17.61
2022-09-24T03:32:33.074Z,16.43
2022-09-24T03:34:05.802Z,17.35
2022-09-24T03:35:37.202Z,17.96
2022-09-24T03:37:08.533Z,17.11
2022-09-24T03:38:39.849Z,16.89
2022-09-24T03:40:11.248Z,17.32
2022-09-24T03:41:42.760Z,19.83
2022-09-24T03:43:14.083Z,18.00
2022-09-24T03:44:45.393Z,18.00
2022-09-24T03:46:16.766Z,17.26
2022-09-24T03:47:48.124Z,19.64
2022-09-24T03:49:19.449Z,17.82
2022-09-24T03:50:51.122Z,16.92
2022-09-24T03:52:22.483Z,16.82
2022-09-24T03:53:53.860Z,20.62
2022-09-24T03:55:25.301Z,17.85
2022-09-24T03:56:56.742Z,16.75
2022-09-24T03:58:28.194Z,16.48
2022-09-24T03:59:59.600Z,18.01
2022-09-24T04:01:30.925Z,21.48
2022-09-24T04:03:02.365Z,19.02
2022-09-24T04:04:33.721Z,17.14
2022-09-24T04:06:05.066Z,18.00
2022-09-24T04:07:36.793Z,22.28
2022-09-24T04:09:08.060Z,18.36
2022-09-24T04:10:44.298Z,17.41
2022-09-24T04:12:15.868Z,18.44
2022-09-24T04:13:47.113Z,20.83
2022-09-24T04:15:19.705Z,20.64
2022-09-24T04:16:51.008Z,20.33
2022-09-24T04:18:22.480Z,23.59
2022-09-24T04:19:53.785Z,20.91
2022-09-24T04:21:25.247Z,20.63
2022-09-24T04:22:56.594Z,20.42
2022-09-24T04:24:27.860Z,21.63
2022-09-24T04:26:00.685Z,21.76
2022-09-24T04:27:32.058Z,23.59
2022-09-24T04:29:03.377Z,23.15
2022-09-24T04:30:34.760Z,22.31
2022-09-24T04:32:06.259Z,24.82
2022-09-24T04:33:37.642Z,26.26
2022-09-24T04:35:09.199Z,24.54
2022-09-24T04:36:40.518Z,25.45
2022-09-24T04:38:12.133Z,22.97
2022-09-24T04:39:43.392Z,22.78
2022-09-24T04:41:14.745Z,24.90
2022-09-24T04:42:46.324Z,26.33
2022-09-24T04:44:17.623Z,23.81
2022-09-24T04:45:48.972Z,24.63
2022-09-24T04:47:20.314Z,24.97
2022-09-24T04:48:52.089Z,23.89
2022-09-24T04:50:23.384Z,24.52
2022-09-24T04:51:54.819Z,24.52
2022-09-24T04:53:26.155Z,25.96
2022-09-24T04:54:57.393Z,26.58
2022-09-24T04:56:29.763Z,27.06
2022-09-24T04:58:01.206Z,26.39
2022-09-24T04:59:32.558Z,27.35
2022-09-24T05:01:03.893Z,28.60
2022-09-24T05:02:35.498Z,24.56
2022-09-24T05:04:06.961Z,25.21
2022-09-24T05:05:48.343Z,26.49
2022-09-24T05:07:19.730Z,26.23
2022-09-24T05:08:51.159Z,25.75
2022-09-24T05:10:22.497Z,25.28
2022-09-24T05:11:53.994Z,24.12
2022-09-24T05:13:25.303Z,24.50
2022-09-24T05:14:56.661Z,27.74
2022-09-24T05:16:28.117Z,26.25
2022-09-24T05:17:59.536Z,25.42
2022-09-24T05:19:30.981Z,26.53
2022-09-24T05:21:02.319Z,25.46
2022-09-24T05:22:33.609Z,24.58
2022-09-24T05:24:05.395Z,25.82
2022-09-24T05:25:36.887Z,25.15
2022-09-24T05:27:08.200Z,26.65
2022-09-24T05:28:39.515Z,24.79
2022-09-24T05:30:10.920Z,24.05
2022-09-24T05:31:42.263Z,23.38
2022-09-24T05:33:13.632Z,24.41
2022-09-24T05:34:45.115Z,24.67
2022-09-24T05:36:16.509Z,23.87
2022-09-24T05:37:47.865Z,25.11
2022-09-24T05:39:19.149Z,24.83
2022-09-24T05:40:50.748Z,24.86
2022-09-24T05:42:22.247Z,25.17
2022-09-24T05:43:53.698Z,25.30
2022-09-24T05:45:25.261Z,24.66
2022-09-24T05:46:57.306Z,25.15
2022-09-24T05:48:28.780Z,25.41
2022-09-24T05:50:00.553Z,24.39
2022-09-24T05:51:32.029Z,25.78
2022-09-24T05:53:03.374Z,23.11
2022-09-24T05:54:34.901Z,20.86
2022-09-24T05:56:06.200Z,22.90
2022-09-24T05:57:38.107Z,22.26
2022-09-24T05:59:09.805Z,23.07
2022-09-24T06:00:41.376Z,22.51
2022-09-24T06:02:12.956Z,25.64
2022-09-24T06:03:44.345Z,23.70
2022-09-24T06:05:15.713Z,25.08
2022-09-24T06:06:46.974Z,24.89
2022-09-24T06:08:23.539Z,22.96
2022-09-24T06:09:54.909Z,23.37
2022-09-24T06:11:26.381Z,22.43
2022-09-24T06:12:57.674Z,21.35
2022-09-24T06:14:29.324Z,22.98
2022-09-24T06:16:01.077Z,20.91
2022-09-24T06:17:32.606Z,21.64
2022-09-24T06:19:04.190Z,21.10
2022-09-24T06:20:35.717Z,22.84
2022-09-24T06:22:07.099Z,22.71
2022-09-24T06:23:38.669Z,21.95
2022-09-24T06:25:10.113Z,23.49
2022-09-24T06:26:47.206Z,21.02
2022-09-24T06:28:18.585Z,22.54
2022-09-24T06:29:49.936Z,23.36
2022-09-24T06:31:21.509Z,21.65
2022-09-24T06:32:52.895Z,21.52
2022-09-24T06:34:24.332Z,21.79
2022-09-24T06:35:55.737Z,21.13
2022-09-24T06:37:27.306Z,23.36
2022-09-24T06:38:58.874Z,20.69
2022-09-24T06:40:35.666Z,20.27
2022-09-24T06:42:08.395Z,21.79
2022-09-24T06:43:39.681Z,20.80
2022-09-24T06:45:11.116Z,21.53
2022-09-24T06:46:42.446Z,20.17
2022-09-24T06:48:14.116Z,19.06
2022-09-24T06:50:26.932Z,21.81
2022-09-24T06:52:03.846Z,22.34
2022-09-24T06:53:35.259Z,21.07
2022-09-24T06:55:07.044Z,20.75
2022-09-24T06:56:44.029Z,20.41
2022-09-24T06:58:15.473Z,19.34
2022-09-24T06:59:46.813Z,22.48
2022-09-24T07:01:18.455Z,18.82
2022-09-24T07:02:49.861Z,19.49
2022-09-24T07:04:21.246Z,17.60
2022-09-24T07:05:52.689Z,20.46
2022-09-24T07:07:24.081Z,19.81
2022-09-24T07:08:55.627Z,22.17
2022-09-24T07:10:27.255Z,21.22
2022-09-24T07:11:58.667Z,19.52
2022-09-24T07:13:30.128Z,19.01
2022-09-24T07:15:01.391Z,21.22
2022-09-24T07:16:32.833Z,21.96
2022-09-24T07:18:04.266Z,20.34
2022-09-24T07:19:35.747Z,22.64
2022-09-24T07:21:07.010Z,21.17
2022-09-24T07:22:38.371Z,21.34
2022-09-24T07:24:09.984Z,20.68
2022-09-24T07:25:41.377Z,20.61
2022-09-24T07:27:12.789Z,21.93
2022-09-24T07:28:44.277Z,23.27
2022-09-24T07:30:15.642Z,21.22
2022-09-24T07:31:47.329Z,22.28
2022-09-24T07:33:18.886Z,20.26
2022-09-24T07:34:50.378Z,23.96
2022-09-24T07:36:22.262Z,33.04
2022-09-24T07:37:53.605Z,34.51
2022-09-24T07:39:24.957Z,21.18
2022-09-24T07:40:56.442Z,19.25
2022-09-24T07:42:28.081Z,18.50
2022-09-24T07:43:59.356Z,18.34
2022-09-24T07:45:30.928Z,20.44
2022-09-24T07:47:02.864Z,19.19
2022-09-24T07:48:34.197Z,18.28
2022-09-24T07:50:05.586Z,19.14
2022-09-24T07:51:37.029Z,16.14
2022-09-24T07:53:08.326Z,17.77
2022-09-24T07:54:39.958Z,17.79
2022-09-24T07:56:11.396Z,19.34
2022-09-24T07:57:42.710Z,16.73
2022-09-24T07:59:14.176Z,17.12
2022-09-24T08:00:45.483Z,17.13
2022-09-24T08:02:16.915Z,16.06
2022-09-24T08:03:48.666Z,16.22
2022-09-24T08:05:20.141Z,17.46
2022-09-24T08:06:51.809Z,14.40
2022-09-24T08:08:23.084Z,16.10
2022-09-24T08:09:54.415Z,17.36
2022-09-24T08:11:25.941Z,14.90
2022-09-24T08:12:57.411Z,15.18
2022-09-24T08:14:28.997Z,14.31
2022-09-24T08:16:00.589Z,17.14
2022-09-24T08:17:32.104Z,15.95
2022-09-24T08:19:08.688Z,15.56
2022-09-24T08:20:40.046Z,13.21
2022-09-24T08:22:11.436Z,14.16
2022-09-24T08:23:42.832Z,14.21
2022-09-24T08:25:14.434Z,13.60
2022-09-24T08:26:46.478Z,12.50
2022-09-24T08:28:17.834Z,12.66
2022-09-24T08:29:49.154Z,13.75
2022-09-24T08:31:20.499Z,20.76
2022-09-24T08:32:52.074Z,13.10
2022-09-24T08:34:23.388Z,15.26
2022-09-24T08:35:54.738Z,13.01
2022-09-24T08:37:26.106Z,13.06
2022-09-24T08:38:58.017Z,12.92
2022-09-24T08:40:29.377Z,11.60
2022-09-24T08:42:00.780Z,12.92
2022-09-24T08:43:32.146Z,11.38
2022-09-24T08:45:03.443Z,13.13
2022-09-24T08:46:35.077Z,13.92
2022-09-24T08:48:06.505Z,11.20
2022-09-24T08:49:37.845Z,12.54
2022-09-24T08:51:09.230Z,10.44
2022-09-24T08:52:40.652Z,11.14
2022-09-24T08:54:12.203Z,12.01
2022-09-24T08:55:43.664Z,11.78
2022-09-24T08:57:14.982Z,13.97
2022-09-24T08:58:46.617Z,12.60
2022-09-24T09:00:18.162Z,14.66
2022-09-24T09:01:49.864Z,12.73
2022-09-24T09:03:21.569Z,12.60
2022-09-24T09:04:52.953Z,14.37
2022-09-24T09:06:29.511Z,13.27
2022-09-24T09:08:21.346Z,11.02
2022-09-24T09:10:05.793Z,13.76
2022-09-24T09:11:37.375Z,12.17
2022-09-24T09:13:09.226Z,14.87
2022-09-24T09:14:42.284Z,12.35
2022-09-24T09:16:14.451Z,12.99
2022-09-24T09:17:47.115Z,12.88
2022-09-24T09:19:18.489Z,14.01
2022-09-24T09:20:49.832Z,13.21
2022-09-24T09:22:21.441Z,12.12
2022-09-24T09:23:52.818Z,13.30
2022-09-24T09:25:24.147Z,12.91
2022-09-24T09:26:55.649Z,14.99
2022-09-24T09:28:27.050Z,15.34
2022-09-24T09:29:58.853Z,14.64
2022-09-24T09:31:30.849Z,13.07
2022-09-24T09:33:02.161Z,14.16
2022-09-24T09:34:33.632Z,14.82
2022-09-24T09:36:05.197Z,15.37
2022-09-24T09:37:36.660Z,14.17
2022-09-24T09:39:08.181Z,13.03
2022-09-24T09:40:40.764Z,13.20
2022-09-24T09:42:12.674Z,14.88
2022-09-24T09:43:44.447Z,14.17
2022-09-24T09:45:15.779Z,15.55
2022-09-24T09:46:47.288Z,15.76
2022-09-24T09:48:19.351Z,15.44
2022-09-24T09:49:50.920Z,14.90
2022-09-24T09:51:23.223Z,15.73
2022-09-24T09:52:54.880Z,14.71
2022-09-24T09:54:26.201Z,14.65
2022-09-24T09:55:58.313Z,15.40
2022-09-24T09:57:30.075Z,16.32
2022-09-24T09:59:01.600Z,16.94
2022-09-24T10:00:33.020Z,16.24
2022-09-24T10:02:04.752Z,15.85
2022-09-24T10:03:36.302Z,30.93
2022-09-24T10:05:07.980Z,24.58
2022-09-24T10:06:39.842Z,14.53
2022-09-24T10:08:11.286Z,14.71
2022-09-24T10:09:42.935Z,14.52
2022-09-24T10:11:14.263Z,15.46
2022-09-24T10:12:50.583Z,14.43
2022-09-24T10:14:22.225Z,16.48
2022-09-24T10:15:53.595Z,14.48
2022-09-24T10:17:25.235Z,14.28
2022-09-24T10:19:01.573Z,14.58
2022-09-24T10:20:33.504Z,13.08
2022-09-24T10:22:05.018Z,14.35
2022-09-24T10:23:36.850Z,14.74
2022-09-24T10:25:08.462Z,13.39
2022-09-24T10:26:44.559Z,15.36
2022-09-24T10:28:16.643Z,13.40
2022-09-24T10:29:48.170Z,14.81
2022-09-24T10:31:19.835Z,13.92
2022-09-24T10:32:51.371Z,13.34
2022-09-24T10:34:22.737Z,13.79
2022-09-24T10:35:54.052Z,17.16
2022-09-24T10:37:25.459Z,16.40
2022-09-24T10:38:56.778Z,12.63
2022-09-24T10:40:28.219Z,12.70
2022-09-24T10:41:59.776Z,12.95
2022-09-24T10:43:31.195Z,14.65
2022-09-24T10:45:02.613Z,15.88
2022-09-24T10:46:34.306Z,14.17
2022-09-24T10:48:05.766Z,13.60
2022-09-24T10:49:37.118Z,14.68
2022-09-24T10:51:08.822Z,12.95
2022-09-24T10:52:40.326Z,14.04
2022-09-24T10:54:12.059Z,13.82
2022-09-24T10:55:43.554Z,13.37
2022-09-24T10:57:15.418Z,16.35
2022-09-24T10:58:46.838Z,15.58
2022-09-24T11:00:18.283Z,12.46
2022-09-24T11:01:49.667Z,13.22
2022-09-24T11:03:21.157Z,12.03
2022-09-24T11:04:52.849Z,12.61
2022-09-24T11:06:24.252Z,17.29
2022-09-24T11:07:55.739Z,12.32
2022-09-24T11:09:27.144Z,11.84
2022-09-24T11:10:58.917Z,9.68
2022-09-24T11:12:30.316Z,10.10
2022-09-24T11:14:01.911Z,9.74
2022-09-24T11:15:33.457Z,9.67
2022-09-24T11:17:04.936Z,9.01
2022-09-24T11:18:36.368Z,9.70
2022-09-24T11:20:07.794Z,9.45
2022-09-24T11:21:39.147Z,9.63
2022-09-24T11:23:10.880Z,9.09
2022-09-24T11:24:42.362Z,9.36
2022-09-24T11:26:13.751Z,10.12
2022-09-24T11:27:45.114Z,10.16
2022-09-24T11:29:18.090Z,8.68
2022-09-24T11:30:49.664Z,8.65
2022-09-24T11:32:21.201Z,8.66
2022-09-24T11:33:53.683Z,8.97
2022-09-24T11:35:25.195Z,10.12
2022-09-24T11:36:56.756Z,8.49
2022-09-24T11:38:28.575Z,8.93
2022-09-24T11:39:59.957Z,9.25
2022-09-24T11:41:31.349Z,9.61
2022-09-24T11:43:02.860Z,9.34
2022-09-24T11:44:34.916Z,9.45
2022-09-24T11:46:06.307Z,10.38
2022-09-24T11:47:37.866Z,9.27
2022-09-24T11:49:10.497Z,9.51
2022-09-24T11:50:46.714Z,9.56
2022-09-24T11:52:19.252Z,9.82
2022-09-24T11:53:50.944Z,8.80
2022-09-24T11:55:22.460Z,9.22
2022-09-24T11:56:53.925Z,9.35
2022-09-24T11:58:25.355Z,8.16
2022-09-24T11:59:57.162Z,9.14
2022-09-24T12:01:28.761Z,9.86
2022-09-24T12:03:00.484Z,9.16
2022-09-24T12:04:31.911Z,10.20
2022-09-24T12:06:03.359Z,11.93
2022-09-24T12:07:34.982Z,12.44
2022-09-24T12:09:06.364Z,12.44
2022-09-24T12:10:37.739Z,13.58
2022-09-24T12:13:00.571Z,14.44
2022-09-24T12:14:41.973Z,15.01
2022-09-24T12:16:38.768Z,16.04
2022-09-24T12:18:10.328Z,15.36
2022-09-24T12:19:42.048Z,15.07
2022-09-24T12:21:13.433Z,14.60
2022-09-24T12:22:45.226Z,13.84
2022-09-24T12:24:16.802Z,13.66
2022-09-24T12:25:48.320Z,14.81
2022-09-24T12:27:19.970Z,13.64
2022-09-24T12:28:52.014Z,13.63
2022-09-24T12:30:23.632Z,13.45
2022-09-24T12:32:04.291Z,15.57
2022-09-24T12:33:37.136Z,14.49
2022-09-24T12:35:08.738Z,14.02
2022-09-24T12:36:40.323Z,15.32
2022-09-24T12:38:11.859Z,14.57
2022-09-24T12:39:43.546Z,14.32
2022-09-24T12:41:14.983Z,13.74
2022-09-24T12:42:46.497Z,14.24
2022-09-24T12:44:21.851Z,14.05
2022-09-24T12:45:53.851Z,15.11
2022-09-24T12:47:25.473Z,16.14
2022-09-24T12:48:56.903Z,14.13
2022-09-24T12:50:28.201Z,14.39
2022-09-24T12:51:59.653Z,15.08
2022-09-24T12:53:31.081Z,14.00
2022-09-24T12:55:02.720Z,16.70
2022-09-24T12:56:34.242Z,14.64
2022-09-24T12:58:05.985Z,15.73
2022-09-24T12:59:37.380Z,15.50
2022-09-24T13:01:08.777Z,15.50
2022-09-24T13:02:40.241Z,14.31
2022-09-24T13:04:11.998Z,15.76
2022-09-24T13:05:43.673Z,14.23
2022-09-24T13:07:15.154Z,15.28
2022-09-24T13:08:46.701Z,14.98
2022-09-24T13:10:18.012Z,15.77
2022-09-24T13:11:49.656Z,17.19
2022-09-24T13:13:21.187Z,15.65
2022-09-24T13:14:52.864Z,16.92
2022-09-24T13:16:24.230Z,17.89
2022-09-24T13:17:55.650Z,15.98
2022-09-24T13:19:27.165Z,17.11
2022-09-24T13:20:58.663Z,17.99
2022-09-24T13:22:30.317Z,16.81
2022-09-24T13:24:02.540Z,17.63
2022-09-24T13:25:34.127Z,17.32
2022-09-24T13:27:05.628Z,17.14
2022-09-24T13:28:39.012Z,17.28
2022-09-24T13:30:11.747Z,17.62
2022-09-24T13:31:43.319Z,16.27
2022-09-24T13:33:15.188Z,16.26
2022-09-24T13:34:46.604Z,16.78
2022-09-24T13:36:18.185Z,17.21
2022-09-24T13:37:49.718Z,17.65
2022-09-24T13:39:21.132Z,18.41
2022-09-24T13:40:52.745Z,17.92
2022-09-24T13:42:44.205Z,15.61
2022-09-24T13:44:15.664Z,15.80
2022-09-24T13:45:47.114Z,17.54
2022-09-24T13:47:18.539Z,17.49
2022-09-24T13:48:50.196Z,15.54
2022-09-24T13:50:21.532Z,14.93
2022-09-24T13:51:52.979Z,16.17
2022-09-24T13:53:24.458Z,15.97
2022-09-24T13:54:55.905Z,16.98
2022-09-24T13:56:27.376Z,18.28
2022-09-24T13:57:58.942Z,15.05
2022-09-24T13:59:30.449Z,16.59
2022-09-24T14:01:02.015Z,16.70
2022-09-24T14:02:34.080Z,16.80
2022-09-24T14:04:05.706Z,16.41
2022-09-24T14:05:37.052Z,16.66
2022-09-24T14:07:08.638Z,15.73
2022-09-24T14:08:40.482Z,17.74
2022-09-24T14:10:12.337Z,17.25
2022-09-24T14:11:50.092Z,16.67
2022-09-24T14:13:21.919Z,16.68
2022-09-24T14:14:54.354Z,16.51
2022-09-24T14:16:26.137Z,18.50
2022-09-24T14:17:57.702Z,18.24
2022-09-24T14:19:29.519Z,16.28
2022-09-24T14:21:01.124Z,18.33
2022-09-24T14:22:32.932Z,17.57
2022-09-24T14:24:04.391Z,18.53
2022-09-24T14:25:35.931Z,18.84
2022-09-24T14:27:08.403Z,19.27
2022-09-24T14:28:39.781Z,17.31
2022-09-24T14:30:11.399Z,17.65
2022-09-24T14:31:42.816Z,17.73
2022-09-24T14:33:14.096Z,18.87
2022-09-24T14:34:45.430Z,16.69
2022-09-24T14:36:17.169Z,18.90
2022-09-24T14:37:48.574Z,18.74
2022-09-24T14:39:21.231Z,18.13
2022-09-24T14:40:52.635Z,17.99
2022-09-24T14:42:24.122Z,18.08
2022-09-24T14:43:55.618Z,17.84
2022-09-24T14:45:27.260Z,17.79
2022-09-24T14:46:58.722Z,16.82
2022-09-24T14:48:30.264Z,18.04
2022-09-24T14:50:01.643Z,17.83
2022-09-24T14:51:38.251Z,18.68
2022-09-24T14:53:09.532Z,20.01
2022-09-24T14:54:41.194Z,18.86
2022-09-24T14:56:12.589Z,17.81
2022-09-24T14:57:48.227Z,18.77
2022-09-24T14:59:22.285Z,16.68
2022-09-24T15:00:54.038Z,16.78
2022-09-24T15:02:25.622Z,16.93
2022-09-24T15:03:57.011Z,16.13
2022-09-24T15:05:29.019Z,17.19
2022-09-24T15:07:00.425Z,17.82
2022-09-24T15:08:31.935Z,19.21
2022-09-24T15:10:03.583Z,17.11
2022-09-24T15:11:43.405Z,17.29
2022-09-24T15:13:15.414Z,16.30
2022-09-24T15:14:46.951Z,16.74
2022-09-24T15:16:18.450Z,17.24
2022-09-24T15:17:50.061Z,16.90
2022-09-24T15:19:21.459Z,15.92
2022-09-24T15:20:53.043Z,18.77
2022-09-24T15:22:24.632Z,18.74
2022-09-24T15:23:55.978Z,18.10
2022-09-24T15:25:27.376Z,17.62
2022-09-24T15:26:58.869Z,17.95
2022-09-24T15:28:30.614Z,17.65
2022-09-24T15:30:02.121Z,17.55
2022-09-24T15:31:33.812Z,19.36
2022-09-24T15:33:05.472Z,18.60
2022-09-24T15:34:36.945Z,18.82
2022-09-24T15:36:08.300Z,19.00
2022-09-24T15:38:39.786Z,18.26
2022-09-24T15:40:11.485Z,18.64
2022-09-24T15:41:42.939Z,18.51
2022-09-24T15:43:19.407Z,17.85
2022-09-24T15:44:55.825Z,20.15
2022-09-24T15:46:27.286Z,18.38
2022-09-24T15:47:58.876Z,19.53
2022-09-24T15:49:30.400Z,18.32
2022-09-24T15:51:05.810Z,18.67
2022-09-24T15:52:39.028Z,19.34
2022-09-24T15:54:10.563Z,18.53
2022-09-24T15:55:41.870Z,19.98
2022-09-24T15:57:13.327Z,18.62
2022-09-24T15:58:44.884Z,19.79
2022-09-24T16:00:21.223Z,19.23
2022-09-24T16:01:52.602Z,18.96
2022-09-24T16:03:25.407Z,19.20
2022-09-24T16:05:00.273Z,18.75
2022-09-24T16:06:35.815Z,19.27
2022-09-24T16:08:07.381Z,19.90
2022-09-24T16:09:38.692Z,20.29
2022-09-24T16:11:10.048Z,22.93
2022-09-24T16:12:41.449Z,23.08
2022-09-24T16:14:13.102Z,30.40
2022-09-24T16:15:44.596Z,25.25
2022-09-24T16:17:17.242Z,22.62
2022-09-24T16:18:48.566Z,24.46
2022-09-24T16:20:20.195Z,22.91
2022-09-24T16:21:51.883Z,23.26
2022-09-24T16:23:23.395Z,24.70
2022-09-24T16:24:54.985Z,25.26
2022-09-24T16:26:26.349Z,24.56
2022-09-24T16:27:57.928Z,23.35
2022-09-24T16:29:29.682Z,23.40
2022-09-24T16:31:01.013Z,25.31
2022-09-24T16:32:52.466Z,25.56
2022-09-24T16:34:34.174Z,29.14
2022-09-24T16:36:05.964Z,28.65
2022-09-24T16:37:37.517Z,31.18
2022-09-24T16:39:14.008Z,34.64
2022-09-24T16:40:46.219Z,30.22
2022-09-24T16:42:17.763Z,28.84
2022-09-24T16:43:49.443Z,28.11
2022-09-24T16:45:30.953Z,27.12
2022-09-24T16:47:02.569Z,27.20
2022-09-24T16:48:33.970Z,28.45
2022-09-24T16:50:05.408Z,26.92
2022-09-24T16:51:37.025Z,26.00
2022-09-24T16:53:08.563Z,26.07
2022-09-24T16:54:40.748Z,25.14
2022-09-24T16:56:12.614Z,24.94
2022-09-24T16:57:49.019Z,23.79
2022-09-24T16:59:20.406Z,22.79
2022-09-24T17:00:51.743Z,23.26
2022-09-24T17:02:23.058Z,22.26
2022-09-24T17:03:54.816Z,23.72
2022-09-24T17:05:26.469Z,22.45
2022-09-24T17:06:58.048Z,21.70
2022-09-24T17:08:29.669Z,21.42
2022-09-24T17:10:01.018Z,23.00
2022-09-24T17:11:32.310Z,24.82
2022-09-24T17:13:03.746Z,27.34
2022-09-24T17:14:40.383Z,25.93
2022-09-24T17:16:11.932Z,25.34
2022-09-24T17:17:48.564Z,24.89
2022-09-24T17:19:34.302Z,24.25
2022-09-24T17:21:06.276Z,23.75
2022-09-24T17:22:37.797Z,22.26
2022-09-24T17:24:09.229Z,21.88
2022-09-24T17:25:40.681Z,20.76
2022-09-24T17:27:27.689Z,22.64
2022-09-24T17:28:59.283Z,24.20
2022-09-24T17:30:30.762Z,22.83
2022-09-24T17:32:02.439Z,22.05
2022-09-24T17:33:42.863Z,21.87
2022-09-24T17:35:20.428Z,21.65
2022-09-24T17:36:51.847Z,22.29
2022-09-24T17:38:24.418Z,21.12
2022-09-24T17:39:55.984Z,20.01
2022-09-24T17:41:27.466Z,20.48
2022-09-24T17:43:03.728Z,18.80
2022-09-24T17:44:35.057Z,20.94
2022-09-24T17:46:24.171Z,20.99
2022-09-24T17:47:56.020Z,18.20
2022-09-24T17:49:27.493Z,18.44
2022-09-24T17:50:58.905Z,19.34
2022-09-24T17:52:30.268Z,17.85
2022-09-24T17:54:01.645Z,18.41
2022-09-24T17:55:33.434Z,17.21
2022-09-24T17:57:04.834Z,16.12
2022-09-24T17:58:36.410Z,16.94
2022-09-24T18:00:07.721Z,18.64
2022-09-24T18:01:39.114Z,20.30
2022-09-24T18:03:31.409Z,25.27
2022-09-24T18:05:41.188Z,26.94
2022-09-24T18:07:12.751Z,21.38
2022-09-24T18:08:44.032Z,19.21
2022-09-24T18:10:15.298Z,19.70
2022-09-24T18:12:09.136Z,19.31
2022-09-24T18:13:42.902Z,18.70
2022-09-24T18:15:27.866Z,24.81
2022-09-24T18:16:59.738Z,23.43
2022-09-24T18:18:31.780Z,29.70
2022-09-24T18:20:03.819Z,20.18
2022-09-24T18:21:35.836Z,25.73
2022-09-24T18:23:07.862Z,29.49
2022-09-24T18:24:39.900Z,26.09
2022-09-24T18:26:11.718Z,22.20
2022-09-24T18:27:43.758Z,19.16
2022-09-24T18:29:53.149Z,20.20
2022-09-24T18:31:24.907Z,20.84
2022-09-24T18:32:56.588Z,21.64
2022-09-24T18:34:40.277Z,20.79
2022-09-24T18:36:16.758Z,20.06
2022-09-24T18:38:08.125Z,20.25
2022-09-24T18:39:39.809Z,19.16
2022-09-24T18:41:11.408Z,20.77
2022-09-24T18:42:42.807Z,22.29
2022-09-24T18:44:14.696Z,20.82
2022-09-24T18:45:46.775Z,21.78
2022-09-24T18:47:18.322Z,21.50
2022-09-24T18:48:49.792Z,21.22
2022-09-24T18:50:21.493Z,21.76
2022-09-24T18:51:53.189Z,21.76
2022-09-24T18:53:25.375Z,23.83
2022-09-24T18:54:57.083Z,26.04
2022-09-24T18:56:29.035Z,25.08
2022-09-24T18:58:30.809Z,25.00
2022-09-24T19:00:02.423Z,22.12
2022-09-24T19:01:33.917Z,20.91
2022-09-24T19:03:05.697Z,20.90
2022-09-24T19:04:37.547Z,22.13
2022-09-24T19:06:09.060Z,20.86
2022-09-24T19:07:40.377Z,20.90
2022-09-24T19:09:35.153Z,21.39
2022-09-24T19:11:06.833Z,22.00
2022-09-24T19:12:38.278Z,25.06
2022-09-24T19:14:35.930Z,25.54
2022-09-24T19:16:07.473Z,23.08
2022-09-24T19:17:39.151Z,21.81
2022-09-24T19:19:15.756Z,23.78
2022-09-24T19:20:47.533Z,23.31
2022-09-24T19:22:59.091Z,23.32
2022-09-24T19:24:30.771Z,23.81
2022-09-24T19:26:14.814Z,22.57
2022-09-24T19:27:46.512Z,21.66
2022-09-24T19:29:18.462Z,21.19
2022-09-24T19:30:50.173Z,22.92
2022-09-24T19:32:22.187Z,22.51
2022-09-24T19:33:54.327Z,22.28
2022-09-24T19:35:50.773Z,22.09
2022-09-24T19:37:22.575Z,21.22
2022-09-24T19:38:54.020Z,22.44
2022-09-24T19:40:25.514Z,20.75
2022-09-24T19:41:57.108Z,21.10
2022-09-24T19:43:29.054Z,22.23
2022-09-24T19:45:01.114Z,21.15
2022-09-24T19:46:55.689Z,21.14
2022-09-24T19:48:28.809Z,20.62
2022-09-24T19:50:00.277Z,22.69
2022-09-24T19:51:32.243Z,21.76
2022-09-24T19:53:04.131Z,21.45
2022-09-24T19:54:35.893Z,19.52
2022-09-24T19:56:07.605Z,21.73